ROU1664 CYYZ-KRSW
Flight info
| Callsign | ROU1664 |
|---|---|
| Flight time | 2h 48m |
| Altitude | 36000 |
| Route | BETES3 AIRRA Q103 CYNTA SHFTY6 |
| Aircraft | A319/M-SDE3FGHIRWY/LB1 |
Departure
| Time | 2026-05-03 21:08 |
|---|---|
| Airport | Toronto Pearson International Airport (CYYZ) |
Arrival
| Time | 2026-05-03 23:56 |
|---|---|
| Airport | Southwest Florida International Airport (KRSW) |
| Time | Latitude | Longitude | Altitude | Speed | Heading |
|---|---|---|---|---|---|
| 2026-05-03 20:30 | 43.68011 | -79.61476 | 569 ft | 0 kts | 317° |
| 2026-05-03 20:56 | 43.68010 | -79.61475 | 561 ft | 2 kts | 317° |
| 2026-05-03 20:56 | 43.67994 | -79.61454 | 561 ft | 3 kts | 319° |
| 2026-05-03 20:57 | 43.67977 | -79.61434 | 565 ft | 3 kts | 315° |
| 2026-05-03 20:57 | 43.67963 | -79.61411 | 569 ft | 3 kts | 287° |
| 2026-05-03 20:57 | 43.67961 | -79.61397 | 565 ft | 2 kts | 210° |
| 2026-05-03 20:57 | 43.67962 | -79.61396 | 561 ft | 0 kts | 210° |
| 2026-05-03 20:59 | 43.67961 | -79.61397 | 561 ft | 1 kts | 210° |
| 2026-05-03 20:59 | 43.67941 | -79.61411 | 568 ft | 5 kts | 200° |
| 2026-05-03 21:00 | 43.67899 | -79.61432 | 568 ft | 8 kts | 212° |
| 2026-05-03 21:00 | 43.67869 | -79.61472 | 565 ft | 10 kts | 227° |
| 2026-05-03 21:00 | 43.67806 | -79.61565 | 564 ft | 10 kts | 226° |
| 2026-05-03 21:00 | 43.67755 | -79.61636 | 566 ft | 11 kts | 222° |
| 2026-05-03 21:01 | 43.67684 | -79.61639 | 569 ft | 10 kts | 174° |
| 2026-05-03 21:01 | 43.67634 | -79.61693 | 566 ft | 9 kts | 257° |
| 2026-05-03 21:01 | 43.67663 | -79.61764 | 568 ft | 10 kts | 316° |
| 2026-05-03 21:01 | 43.67716 | -79.61834 | 563 ft | 11 kts | 316° |
| 2026-05-03 21:02 | 43.67775 | -79.61911 | 569 ft | 12 kts | 316° |
| 2026-05-03 21:02 | 43.67840 | -79.61996 | 563 ft | 14 kts | 317° |
| 2026-05-03 21:02 | 43.67925 | -79.62072 | 569 ft | 15 kts | 337° |
| 2026-05-03 21:02 | 43.68014 | -79.62156 | 562 ft | 15 kts | 317° |
| 2026-05-03 21:03 | 43.68090 | -79.62256 | 568 ft | 16 kts | 316° |
| 2026-05-03 21:03 | 43.68172 | -79.62363 | 562 ft | 17 kts | 317° |
| 2026-05-03 21:03 | 43.68264 | -79.62470 | 562 ft | 18 kts | 319° |
| 2026-05-03 21:03 | 43.68356 | -79.62589 | 563 ft | 18 kts | 316° |
| 2026-05-03 21:04 | 43.68450 | -79.62714 | 567 ft | 19 kts | 316° |
| 2026-05-03 21:04 | 43.68549 | -79.62841 | 562 ft | 20 kts | 317° |
| 2026-05-03 21:04 | 43.68652 | -79.62975 | 561 ft | 20 kts | 316° |
| 2026-05-03 21:04 | 43.68750 | -79.63104 | 569 ft | 18 kts | 316° |
| 2026-05-03 21:05 | 43.68840 | -79.63221 | 567 ft | 17 kts | 317° |
| 2026-05-03 21:05 | 43.68923 | -79.63328 | 568 ft | 15 kts | 316° |
| 2026-05-03 21:05 | 43.68997 | -79.63424 | 571 ft | 15 kts | 316° |
| 2026-05-03 21:05 | 43.69071 | -79.63521 | 565 ft | 14 kts | 319° |
| 2026-05-03 21:06 | 43.69149 | -79.63488 | 566 ft | 13 kts | 47° |
| 2026-05-03 21:06 | 43.69223 | -79.63424 | 565 ft | 13 kts | 5° |
| 2026-05-03 21:06 | 43.69322 | -79.63421 | 569 ft | 15 kts | 1° |
| 2026-05-03 21:06 | 43.69406 | -79.63490 | 561 ft | 13 kts | 296° |
| 2026-05-03 21:07 | 43.69369 | -79.63574 | 562 ft | 16 kts | 227° |
| 2026-05-03 21:07 | 43.69135 | -79.63914 | 566 ft | 84 kts | 226° |
| 2026-05-03 21:07 | 43.68585 | -79.64704 | 571 ft | 142 kts | 226° |
| 2026-05-03 21:07 | 43.67891 | -79.65730 | 1063 ft | 144 kts | 233° |
| 2026-05-03 21:08 | 43.67322 | -79.66903 | 1605 ft | 150 kts | 234° |
| 2026-05-03 21:08 | 43.66731 | -79.68080 | 2250 ft | 150 kts | 235° |
| 2026-05-03 21:08 | 43.66094 | -79.69344 | 2603 ft | 169 kts | 236° |
| 2026-05-03 21:08 | 43.65404 | -79.70669 | 3244 ft | 170 kts | 236° |
| 2026-05-03 21:09 | 43.64689 | -79.71997 | 3791 ft | 179 kts | 235° |
| 2026-05-03 21:09 | 43.63889 | -79.73469 | 4087 ft | 204 kts | 235° |
| 2026-05-03 21:09 | 43.62969 | -79.75038 | 4735 ft | 215 kts | 225° |
| 2026-05-03 21:09 | 43.61585 | -79.76012 | 5309 ft | 239 kts | 194° |
| 2026-05-03 21:10 | 43.59900 | -79.76100 | 6204 ft | 244 kts | 185° |
| 2026-05-03 21:10 | 43.58194 | -79.76107 | 7019 ft | 250 kts | 186° |
| 2026-05-03 21:10 | 43.56408 | -79.76128 | 7663 ft | 260 kts | 186° |
| 2026-05-03 21:10 | 43.54600 | -79.76154 | 8469 ft | 265 kts | 186° |
| 2026-05-03 21:11 | 43.52746 | -79.76176 | 9264 ft | 269 kts | 186° |
| 2026-05-03 21:11 | 43.50857 | -79.76198 | 10039 ft | 274 kts | 187° |
| 2026-05-03 21:11 | 43.48879 | -79.76223 | 10502 ft | 291 kts | 186° |
| 2026-05-03 21:11 | 43.46825 | -79.76244 | 11157 ft | 299 kts | 186° |
| 2026-05-03 21:12 | 43.44695 | -79.76265 | 11598 ft | 317 kts | 187° |
| 2026-05-03 21:12 | 43.42401 | -79.76294 | 11817 ft | 341 kts | 187° |
| 2026-05-03 21:12 | 43.39956 | -79.76325 | 12038 ft | 361 kts | 186° |
| 2026-05-03 21:12 | 43.37410 | -79.76346 | 12585 ft | 369 kts | 186° |
| 2026-05-03 21:13 | 43.34817 | -79.76360 | 13223 ft | 375 kts | 186° |
| 2026-05-03 21:13 | 43.32198 | -79.76374 | 13884 ft | 379 kts | 186° |
| 2026-05-03 21:13 | 43.29546 | -79.76390 | 14518 ft | 383 kts | 186° |
| 2026-05-03 21:13 | 43.26871 | -79.76429 | 15119 ft | 385 kts | 188° |
| 2026-05-03 21:14 | 43.24249 | -79.76872 | 15702 ft | 384 kts | 197° |
| 2026-05-03 21:14 | 43.21653 | -79.77738 | 16296 ft | 386 kts | 200° |
| 2026-05-03 21:14 | 43.19034 | -79.78638 | 16887 ft | 390 kts | 200° |
| 2026-05-03 21:14 | 43.16394 | -79.79540 | 17474 ft | 393 kts | 200° |
| 2026-05-03 21:15 | 43.13718 | -79.80448 | 18036 ft | 397 kts | 200° |
| 2026-05-03 21:15 | 43.11017 | -79.81361 | 18578 ft | 402 kts | 199° |
| 2026-05-03 21:15 | 43.08292 | -79.82283 | 19144 ft | 405 kts | 200° |
| 2026-05-03 21:15 | 43.05549 | -79.83211 | 19694 ft | 408 kts | 199° |
| 2026-05-03 21:16 | 43.02788 | -79.84142 | 20226 ft | 410 kts | 199° |
| 2026-05-03 21:16 | 43.00007 | -79.85077 | 20737 ft | 413 kts | 199° |
| 2026-05-03 21:16 | 42.97209 | -79.86020 | 21227 ft | 416 kts | 199° |
| 2026-05-03 21:16 | 42.94386 | -79.86973 | 21696 ft | 418 kts | 199° |
| 2026-05-03 21:17 | 42.91554 | -79.87930 | 22166 ft | 421 kts | 199° |
| 2026-05-03 21:17 | 42.89668 | -79.88564 | 22463 ft | 422 kts | 199° |
| 2026-05-03 21:17 | 42.85835 | -79.89854 | 23038 ft | 426 kts | 199° |
| 2026-05-03 21:17 | 42.82940 | -79.90818 | 23465 ft | 428 kts | 198° |
| 2026-05-03 21:18 | 42.80015 | -79.91689 | 23876 ft | 432 kts | 197° |
| 2026-05-03 21:18 | 42.77053 | -79.92460 | 24289 ft | 435 kts | 195° |
| 2026-05-03 21:18 | 42.74101 | -79.93169 | 24675 ft | 437 kts | 195° |
| 2026-05-03 21:18 | 42.71093 | -79.93875 | 25049 ft | 440 kts | 195° |
| 2026-05-03 21:19 | 42.68069 | -79.94597 | 25419 ft | 442 kts | 195° |
| 2026-05-03 21:19 | 42.65034 | -79.95339 | 25772 ft | 444 kts | 195° |
| 2026-05-03 21:19 | 42.61983 | -79.96105 | 26130 ft | 446 kts | 196° |
| 2026-05-03 21:19 | 42.58929 | -79.96885 | 26476 ft | 448 kts | 196° |
| 2026-05-03 21:20 | 42.55857 | -79.97677 | 26811 ft | 450 kts | 196° |
| 2026-05-03 21:20 | 42.52768 | -79.98475 | 27128 ft | 453 kts | 196° |
| 2026-05-03 21:20 | 42.49659 | -79.99272 | 27428 ft | 455 kts | 196° |
| 2026-05-03 21:20 | 42.46539 | -80.00062 | 27734 ft | 457 kts | 196° |
| 2026-05-03 21:21 | 42.43400 | -80.00851 | 28031 ft | 460 kts | 196° |
| 2026-05-03 21:21 | 42.40246 | -80.01643 | 28325 ft | 461 kts | 196° |
| 2026-05-03 21:21 | 42.37126 | -80.02430 | 28606 ft | 463 kts | 196° |
| 2026-05-03 21:21 | 42.33954 | -80.03227 | 28886 ft | 465 kts | 196° |
| 2026-05-03 21:22 | 42.30757 | -80.04028 | 29203 ft | 465 kts | 196° |
| 2026-05-03 21:22 | 42.27577 | -80.04828 | 29611 ft | 464 kts | 196° |
| 2026-05-03 21:22 | 42.24374 | -80.05449 | 29992 ft | 468 kts | 189° |
| 2026-05-03 21:22 | 42.21108 | -80.05547 | 30366 ft | 470 kts | 186° |
| 2026-05-03 21:23 | 42.17836 | -80.05566 | 30715 ft | 470 kts | 186° |
| 2026-05-03 21:23 | 42.14563 | -80.05587 | 31052 ft | 470 kts | 186° |
| 2026-05-03 21:23 | 42.11292 | -80.05610 | 31396 ft | 470 kts | 186° |
| 2026-05-03 21:23 | 42.08028 | -80.05633 | 31744 ft | 469 kts | 186° |
| 2026-05-03 21:24 | 42.04763 | -80.05657 | 32082 ft | 469 kts | 186° |
| 2026-05-03 21:24 | 42.01496 | -80.05679 | 32400 ft | 469 kts | 186° |
| 2026-05-03 21:24 | 41.98238 | -80.05700 | 32698 ft | 469 kts | 186° |
| 2026-05-03 21:24 | 41.94970 | -80.05725 | 33005 ft | 469 kts | 186° |
| 2026-05-03 21:25 | 41.92804 | -80.05743 | 33209 ft | 469 kts | 186° |
| 2026-05-03 21:25 | 41.88489 | -80.05779 | 33621 ft | 469 kts | 186° |
| 2026-05-03 21:25 | 41.85231 | -80.05805 | 33920 ft | 469 kts | 186° |
| 2026-05-03 21:25 | 41.81965 | -80.05828 | 34234 ft | 468 kts | 186° |
| 2026-05-03 21:26 | 41.78712 | -80.05849 | 34527 ft | 468 kts | 186° |
| 2026-05-03 21:26 | 41.75446 | -80.05872 | 34810 ft | 468 kts | 186° |
| 2026-05-03 21:26 | 41.72197 | -80.05901 | 35094 ft | 467 kts | 186° |
| 2026-05-03 21:26 | 41.70003 | -80.05920 | 35268 ft | 467 kts | 186° |
| 2026-05-03 21:27 | 41.66794 | -80.05946 | 35518 ft | 466 kts | 186° |
| 2026-05-03 21:27 | 41.63547 | -80.05969 | 35745 ft | 466 kts | 186° |
| 2026-05-03 21:27 | 41.60300 | -80.05990 | 35972 ft | 466 kts | 186° |
| 2026-05-03 21:27 | 41.57057 | -80.06012 | 36188 ft | 466 kts | 186° |
| 2026-05-03 21:28 | 41.53816 | -80.06037 | 36399 ft | 465 kts | 186° |
| 2026-05-03 21:28 | 41.50588 | -80.06063 | 36569 ft | 465 kts | 186° |
| 2026-05-03 21:28 | 41.47345 | -80.06090 | 36792 ft | 464 kts | 186° |
| 2026-05-03 21:28 | 41.44132 | -80.06112 | 37130 ft | 460 kts | 186° |
| 2026-05-03 21:29 | 41.40942 | -80.06131 | 37414 ft | 457 kts | 186° |
| 2026-05-03 21:29 | 41.37760 | -80.06153 | 37625 ft | 457 kts | 186° |
| 2026-05-03 21:29 | 41.34586 | -80.06180 | 37800 ft | 457 kts | 186° |
| 2026-05-03 21:29 | 41.31409 | -80.06209 | 37947 ft | 457 kts | 186° |
| 2026-05-03 21:30 | 41.25043 | -80.06260 | 37988 ft | 458 kts | 186° |
| 2026-05-03 21:30 | 41.18680 | -80.06295 | 37990 ft | 457 kts | 186° |
| 2026-05-03 21:31 | 41.12314 | -80.06343 | 37994 ft | 457 kts | 187° |
| 2026-05-03 21:31 | 41.05999 | -80.06391 | 38000 ft | 457 kts | 187° |
| 2026-05-03 21:32 | 40.99653 | -80.06433 | 37996 ft | 456 kts | 187° |
| 2026-05-03 21:32 | 40.93309 | -80.06478 | 38006 ft | 456 kts | 187° |
| 2026-05-03 21:33 | 40.86969 | -80.06521 | 38007 ft | 455 kts | 187° |
| 2026-05-03 21:33 | 40.80629 | -80.06568 | 38011 ft | 455 kts | 187° |
| 2026-05-03 21:34 | 40.74286 | -80.06612 | 38016 ft | 455 kts | 187° |
| 2026-05-03 21:34 | 40.67951 | -80.06653 | 38022 ft | 455 kts | 187° |
| 2026-05-03 21:35 | 40.61621 | -80.06700 | 38023 ft | 455 kts | 187° |
| 2026-05-03 21:35 | 40.55299 | -80.06744 | 38022 ft | 454 kts | 187° |
| 2026-05-03 21:36 | 40.48980 | -80.06788 | 38024 ft | 454 kts | 187° |
| 2026-05-03 21:36 | 40.42712 | -80.06835 | 38024 ft | 453 kts | 187° |
| 2026-05-03 21:37 | 40.36398 | -80.06877 | 38028 ft | 453 kts | 187° |
| 2026-05-03 21:37 | 40.30100 | -80.06922 | 38024 ft | 453 kts | 187° |
| 2026-05-03 21:38 | 40.23782 | -80.06967 | 38031 ft | 453 kts | 187° |
| 2026-05-03 21:38 | 40.17477 | -80.07003 | 38034 ft | 453 kts | 187° |
| 2026-05-03 21:39 | 40.11198 | -80.07039 | 38040 ft | 453 kts | 187° |
| 2026-05-03 21:39 | 40.04888 | -80.07081 | 38045 ft | 453 kts | 187° |
| 2026-05-03 21:40 | 39.98587 | -80.07131 | 38050 ft | 452 kts | 187° |
| 2026-05-03 21:40 | 39.92327 | -80.07172 | 38051 ft | 452 kts | 187° |
| 2026-05-03 21:41 | 39.86023 | -80.07215 | 38053 ft | 453 kts | 187° |
| 2026-05-03 21:41 | 39.79719 | -80.07261 | 38055 ft | 453 kts | 187° |
| 2026-05-03 21:42 | 39.73416 | -80.07306 | 38058 ft | 453 kts | 187° |
| 2026-05-03 21:42 | 39.67122 | -80.07353 | 38062 ft | 453 kts | 187° |
| 2026-05-03 21:43 | 39.60822 | -80.07398 | 38067 ft | 453 kts | 187° |
| 2026-05-03 21:43 | 39.54564 | -80.07434 | 38073 ft | 453 kts | 188° |
| 2026-05-03 21:44 | 39.48252 | -80.07493 | 38075 ft | 453 kts | 188° |
| 2026-05-03 21:44 | 39.41949 | -80.07595 | 38079 ft | 453 kts | 188° |
| 2026-05-03 21:45 | 39.35648 | -80.07703 | 38082 ft | 452 kts | 188° |
| 2026-05-03 21:45 | 39.29357 | -80.07803 | 38082 ft | 452 kts | 188° |
| 2026-05-03 21:46 | 39.23072 | -80.07908 | 38081 ft | 451 kts | 188° |
| 2026-05-03 21:46 | 39.16788 | -80.07999 | 38082 ft | 451 kts | 188° |
| 2026-05-03 21:47 | 39.10505 | -80.08094 | 38089 ft | 451 kts | 189° |
| 2026-05-03 21:47 | 39.04234 | -80.08192 | 38089 ft | 450 kts | 189° |
| 2026-05-03 21:48 | 38.98003 | -80.08290 | 38093 ft | 450 kts | 189° |
| 2026-05-03 21:48 | 38.91799 | -80.08653 | 38086 ft | 439 kts | 198° |
| 2026-05-03 21:49 | 38.85968 | -80.10526 | 38090 ft | 430 kts | 204° |
| 2026-05-03 21:49 | 38.80192 | -80.12563 | 38090 ft | 430 kts | 204° |
| 2026-05-03 21:50 | 38.74421 | -80.14581 | 38088 ft | 429 kts | 204° |
| 2026-05-03 21:50 | 38.68659 | -80.16599 | 38090 ft | 429 kts | 204° |
| 2026-05-03 21:51 | 38.62895 | -80.18618 | 38094 ft | 429 kts | 204° |
| 2026-05-03 21:51 | 38.57144 | -80.20624 | 38091 ft | 428 kts | 204° |
| 2026-05-03 21:52 | 38.51402 | -80.22620 | 38090 ft | 427 kts | 204° |
| 2026-05-03 21:52 | 38.45701 | -80.24599 | 38090 ft | 427 kts | 205° |
| 2026-05-03 21:53 | 38.39967 | -80.26584 | 38086 ft | 427 kts | 205° |
| 2026-05-03 21:53 | 38.34230 | -80.28575 | 38087 ft | 426 kts | 205° |
| 2026-05-03 21:54 | 38.28508 | -80.30559 | 38087 ft | 426 kts | 205° |
| 2026-05-03 21:54 | 38.22822 | -80.32528 | 38088 ft | 426 kts | 205° |
| 2026-05-03 21:55 | 38.17098 | -80.34505 | 38089 ft | 426 kts | 205° |
| 2026-05-03 21:55 | 38.11390 | -80.36477 | 38090 ft | 425 kts | 205° |
| 2026-05-03 21:56 | 38.05689 | -80.38432 | 38089 ft | 424 kts | 205° |
| 2026-05-03 21:56 | 37.99990 | -80.40393 | 38089 ft | 424 kts | 205° |
| 2026-05-03 21:57 | 37.94298 | -80.42346 | 38093 ft | 424 kts | 205° |
| 2026-05-03 21:57 | 37.88606 | -80.44291 | 38090 ft | 423 kts | 205° |
| 2026-05-03 21:58 | 37.82956 | -80.46214 | 38092 ft | 423 kts | 205° |
| 2026-05-03 21:58 | 37.77281 | -80.48151 | 38094 ft | 422 kts | 205° |
| 2026-05-03 21:59 | 37.71604 | -80.50093 | 38097 ft | 422 kts | 205° |
| 2026-05-03 21:59 | 37.65929 | -80.52025 | 38100 ft | 422 kts | 205° |
| 2026-05-03 22:00 | 37.60254 | -80.53945 | 38110 ft | 422 kts | 205° |
| 2026-05-03 22:00 | 37.54581 | -80.55865 | 38109 ft | 421 kts | 205° |
| 2026-05-03 22:01 | 37.48924 | -80.57783 | 38107 ft | 421 kts | 205° |
| 2026-05-03 22:01 | 37.43270 | -80.59695 | 38109 ft | 420 kts | 205° |
| 2026-05-03 22:02 | 37.37619 | -80.61602 | 38111 ft | 420 kts | 205° |
| 2026-05-03 22:02 | 37.31975 | -80.63501 | 38112 ft | 419 kts | 205° |
| 2026-05-03 22:03 | 37.26388 | -80.65381 | 38109 ft | 418 kts | 205° |
| 2026-05-03 22:03 | 37.20764 | -80.67267 | 38109 ft | 417 kts | 205° |
| 2026-05-03 22:04 | 37.15157 | -80.69143 | 38104 ft | 417 kts | 205° |
| 2026-05-03 22:04 | 37.09516 | -80.70933 | 38100 ft | 423 kts | 199° |
| 2026-05-03 22:05 | 37.06541 | -80.71257 | 38103 ft | 436 kts | 190° |
| 2026-05-03 22:05 | 37.03492 | -80.71190 | 38102 ft | 438 kts | 189° |
| 2026-05-03 22:05 | 36.97404 | -80.71022 | 38104 ft | 437 kts | 189° |
| 2026-05-03 22:06 | 36.91363 | -80.70869 | 38099 ft | 437 kts | 189° |
| 2026-05-03 22:06 | 36.85290 | -80.70732 | 38097 ft | 436 kts | 189° |
| 2026-05-03 22:07 | 36.79220 | -80.70594 | 38101 ft | 436 kts | 189° |
| 2026-05-03 22:07 | 36.73158 | -80.70451 | 38102 ft | 435 kts | 189° |
| 2026-05-03 22:08 | 36.67108 | -80.70308 | 38098 ft | 434 kts | 190° |
| 2026-05-03 22:08 | 36.61073 | -80.70162 | 38097 ft | 433 kts | 190° |
| 2026-05-03 22:09 | 36.55090 | -80.70028 | 38100 ft | 432 kts | 190° |
| 2026-05-03 22:10 | 36.46066 | -80.69824 | 38103 ft | 432 kts | 190° |
| 2026-05-03 22:10 | 36.40050 | -80.69682 | 38106 ft | 432 kts | 190° |
| 2026-05-03 22:11 | 36.34051 | -80.69545 | 38108 ft | 431 kts | 190° |
| 2026-05-03 22:11 | 36.28056 | -80.69409 | 38107 ft | 430 kts | 190° |
| 2026-05-03 22:12 | 36.22061 | -80.69271 | 38107 ft | 430 kts | 190° |
| 2026-05-03 22:12 | 36.16116 | -80.69131 | 38110 ft | 430 kts | 190° |
| 2026-05-03 22:13 | 36.10123 | -80.68993 | 38112 ft | 430 kts | 190° |
| 2026-05-03 22:13 | 36.04148 | -80.68862 | 38111 ft | 429 kts | 190° |
| 2026-05-03 22:14 | 35.98172 | -80.68729 | 38113 ft | 429 kts | 191° |
| 2026-05-03 22:14 | 35.92205 | -80.68588 | 38128 ft | 428 kts | 191° |
| 2026-05-03 22:15 | 35.86261 | -80.68436 | 38128 ft | 426 kts | 191° |
| 2026-05-03 22:15 | 35.80333 | -80.68306 | 38127 ft | 426 kts | 191° |
| 2026-05-03 22:16 | 35.74458 | -80.68182 | 38120 ft | 425 kts | 191° |
| 2026-05-03 22:16 | 35.68549 | -80.68048 | 38116 ft | 424 kts | 191° |
| 2026-05-03 22:17 | 35.62640 | -80.67909 | 38111 ft | 424 kts | 191° |
| 2026-05-03 22:17 | 35.56748 | -80.67772 | 38116 ft | 423 kts | 191° |
| 2026-05-03 22:18 | 35.50856 | -80.67640 | 38118 ft | 423 kts | 191° |
| 2026-05-03 22:18 | 35.45970 | -80.67533 | 38122 ft | 422 kts | 191° |
| 2026-05-03 22:19 | 35.40087 | -80.67406 | 38127 ft | 422 kts | 191° |
| 2026-05-03 22:19 | 35.33264 | -80.67250 | 38143 ft | 422 kts | 191° |
| 2026-05-03 22:20 | 35.28350 | -80.67135 | 38140 ft | 421 kts | 191° |
| 2026-05-03 22:20 | 35.22531 | -80.67005 | 38134 ft | 420 kts | 191° |
| 2026-05-03 22:21 | 35.16681 | -80.66875 | 38129 ft | 419 kts | 191° |
| 2026-05-03 22:21 | 35.10843 | -80.66742 | 38125 ft | 419 kts | 191° |
| 2026-05-03 22:22 | 35.05017 | -80.66609 | 38122 ft | 418 kts | 191° |
| 2026-05-03 22:22 | 34.99205 | -80.66476 | 38118 ft | 417 kts | 191° |
| 2026-05-03 22:23 | 34.93436 | -80.66340 | 38115 ft | 416 kts | 191° |
| 2026-05-03 22:23 | 34.87656 | -80.66213 | 38114 ft | 415 kts | 191° |
| 2026-05-03 22:24 | 34.81878 | -80.66088 | 38112 ft | 414 kts | 191° |
| 2026-05-03 22:24 | 34.76113 | -80.65956 | 38118 ft | 414 kts | 191° |
| 2026-05-03 22:25 | 34.70359 | -80.65826 | 38122 ft | 413 kts | 191° |
| 2026-05-03 22:25 | 34.64664 | -80.65962 | 38121 ft | 399 kts | 200° |
| 2026-05-03 22:25 | 34.62000 | -80.66664 | 38121 ft | 386 kts | 208° |
| 2026-05-03 22:26 | 34.59473 | -80.67625 | 38124 ft | 384 kts | 208° |
| 2026-05-03 22:26 | 34.54361 | -80.69538 | 38124 ft | 384 kts | 208° |
| 2026-05-03 22:27 | 34.49255 | -80.71427 | 38122 ft | 383 kts | 208° |
| 2026-05-03 22:27 | 34.44152 | -80.73317 | 38122 ft | 383 kts | 208° |
| 2026-05-03 22:28 | 34.39057 | -80.75208 | 38124 ft | 383 kts | 208° |
| 2026-05-03 22:28 | 34.33955 | -80.77104 | 38128 ft | 383 kts | 208° |
| 2026-05-03 22:29 | 34.28858 | -80.78986 | 38129 ft | 383 kts | 208° |
| 2026-05-03 22:29 | 34.23766 | -80.80866 | 38131 ft | 382 kts | 208° |
| 2026-05-03 22:30 | 34.18684 | -80.82747 | 38130 ft | 382 kts | 208° |
| 2026-05-03 22:30 | 34.13601 | -80.84622 | 38125 ft | 381 kts | 208° |
| 2026-05-03 22:31 | 34.08530 | -80.86489 | 38123 ft | 381 kts | 208° |
| 2026-05-03 22:31 | 34.03452 | -80.88358 | 38120 ft | 382 kts | 208° |
| 2026-05-03 22:32 | 33.98371 | -80.90222 | 38119 ft | 381 kts | 208° |
| 2026-05-03 22:32 | 33.93310 | -80.92074 | 38131 ft | 379 kts | 208° |
| 2026-05-03 22:33 | 33.88280 | -80.93918 | 38129 ft | 377 kts | 208° |
| 2026-05-03 22:33 | 33.83299 | -80.95740 | 38127 ft | 375 kts | 208° |
| 2026-05-03 22:34 | 33.78305 | -80.97560 | 38122 ft | 374 kts | 207° |
| 2026-05-03 22:34 | 33.73317 | -80.99385 | 38120 ft | 375 kts | 207° |
| 2026-05-03 22:35 | 33.68359 | -81.01189 | 38117 ft | 374 kts | 207° |
| 2026-05-03 22:35 | 33.63367 | -81.03021 | 38118 ft | 375 kts | 207° |
| 2026-05-03 22:36 | 33.58381 | -81.04840 | 38116 ft | 374 kts | 207° |
| 2026-05-03 22:36 | 33.53400 | -81.06637 | 38114 ft | 374 kts | 207° |
| 2026-05-03 22:37 | 33.48422 | -81.08435 | 38115 ft | 373 kts | 207° |
| 2026-05-03 22:37 | 33.43488 | -81.10223 | 38115 ft | 373 kts | 207° |
| 2026-05-03 22:38 | 33.38524 | -81.12017 | 38119 ft | 372 kts | 207° |
| 2026-05-03 22:38 | 33.33569 | -81.13804 | 38122 ft | 371 kts | 207° |
| 2026-05-03 22:39 | 33.28622 | -81.15595 | 38123 ft | 371 kts | 207° |
| 2026-05-03 22:39 | 33.23676 | -81.17377 | 38128 ft | 371 kts | 207° |
| 2026-05-03 22:40 | 33.18739 | -81.19156 | 38127 ft | 370 kts | 207° |
| 2026-05-03 22:40 | 33.13807 | -81.20933 | 38123 ft | 370 kts | 208° |
| 2026-05-03 22:41 | 33.08879 | -81.22705 | 38125 ft | 369 kts | 207° |
| 2026-05-03 22:41 | 33.03968 | -81.24468 | 38119 ft | 368 kts | 207° |
| 2026-05-03 22:42 | 32.99094 | -81.26215 | 38117 ft | 367 kts | 207° |
| 2026-05-03 22:42 | 32.94200 | -81.27965 | 38113 ft | 367 kts | 207° |
| 2026-05-03 22:43 | 32.89309 | -81.29718 | 38113 ft | 367 kts | 207° |
| 2026-05-03 22:43 | 32.84413 | -81.31469 | 38112 ft | 366 kts | 207° |
| 2026-05-03 22:44 | 32.79534 | -81.33211 | 38114 ft | 365 kts | 207° |
| 2026-05-03 22:44 | 32.74669 | -81.34940 | 38109 ft | 365 kts | 207° |
| 2026-05-03 22:45 | 32.69810 | -81.36674 | 38110 ft | 364 kts | 207° |
| 2026-05-03 22:45 | 32.64954 | -81.38400 | 38118 ft | 364 kts | 207° |
| 2026-05-03 22:46 | 32.60094 | -81.40128 | 38121 ft | 364 kts | 207° |
| 2026-05-03 22:46 | 32.55238 | -81.41854 | 38122 ft | 364 kts | 207° |
| 2026-05-03 22:47 | 32.50391 | -81.43570 | 38116 ft | 363 kts | 207° |
| 2026-05-03 22:47 | 32.45547 | -81.45285 | 38120 ft | 363 kts | 207° |
| 2026-05-03 22:48 | 32.40738 | -81.46976 | 38119 ft | 362 kts | 207° |
| 2026-05-03 22:48 | 32.35900 | -81.48681 | 38122 ft | 362 kts | 207° |
| 2026-05-03 22:49 | 32.31070 | -81.50390 | 38121 ft | 361 kts | 207° |
| 2026-05-03 22:49 | 32.26251 | -81.52088 | 38117 ft | 361 kts | 207° |
| 2026-05-03 22:50 | 32.21439 | -81.53779 | 38116 ft | 360 kts | 207° |
| 2026-05-03 22:50 | 32.16632 | -81.55472 | 38112 ft | 361 kts | 207° |
| 2026-05-03 22:51 | 32.11822 | -81.57161 | 38110 ft | 361 kts | 207° |
| 2026-05-03 22:51 | 32.07012 | -81.58854 | 38113 ft | 361 kts | 207° |
| 2026-05-03 22:52 | 32.02198 | -81.60543 | 38111 ft | 361 kts | 207° |
| 2026-05-03 22:52 | 31.97415 | -81.62220 | 38113 ft | 361 kts | 208° |
| 2026-05-03 22:53 | 31.92596 | -81.63907 | 38115 ft | 361 kts | 207° |
| 2026-05-03 22:53 | 31.87776 | -81.65594 | 38115 ft | 361 kts | 207° |
| 2026-05-03 22:54 | 31.82962 | -81.67278 | 38117 ft | 361 kts | 207° |
| 2026-05-03 22:54 | 31.78147 | -81.68954 | 38119 ft | 360 kts | 208° |
| 2026-05-03 22:55 | 31.73345 | -81.70627 | 38119 ft | 360 kts | 207° |
| 2026-05-03 22:55 | 31.68536 | -81.72295 | 38121 ft | 360 kts | 207° |
| 2026-05-03 22:56 | 31.63723 | -81.73968 | 38124 ft | 360 kts | 207° |
| 2026-05-03 22:56 | 31.58940 | -81.75633 | 38130 ft | 361 kts | 207° |
| 2026-05-03 22:57 | 31.54120 | -81.77299 | 38147 ft | 361 kts | 207° |
| 2026-05-03 22:57 | 31.49300 | -81.78963 | 38153 ft | 361 kts | 207° |
| 2026-05-03 22:58 | 31.44471 | -81.80634 | 38167 ft | 362 kts | 207° |
| 2026-05-03 22:58 | 31.39642 | -81.82299 | 38163 ft | 361 kts | 207° |
| 2026-05-03 22:59 | 31.34817 | -81.83968 | 38163 ft | 361 kts | 207° |
| 2026-05-03 22:59 | 31.30000 | -81.85629 | 38155 ft | 360 kts | 207° |
| 2026-05-03 23:00 | 31.25187 | -81.87276 | 38153 ft | 359 kts | 207° |
| 2026-05-03 23:00 | 31.20388 | -81.88926 | 38147 ft | 360 kts | 207° |
| 2026-05-03 23:01 | 31.15581 | -81.90574 | 38143 ft | 359 kts | 207° |
| 2026-05-03 23:01 | 31.10806 | -81.92213 | 38147 ft | 359 kts | 207° |
| 2026-05-03 23:02 | 31.06010 | -81.93870 | 38150 ft | 360 kts | 207° |
| 2026-05-03 23:02 | 31.01202 | -81.95519 | 38146 ft | 360 kts | 207° |
| 2026-05-03 23:03 | 30.96399 | -81.97157 | 38140 ft | 359 kts | 207° |
| 2026-05-03 23:03 | 30.91593 | -81.98808 | 38145 ft | 359 kts | 207° |
| 2026-05-03 23:04 | 30.86797 | -82.00451 | 38144 ft | 360 kts | 207° |
| 2026-05-03 23:04 | 30.81982 | -82.02096 | 38141 ft | 361 kts | 207° |
| 2026-05-03 23:05 | 30.77199 | -82.03723 | 38143 ft | 360 kts | 207° |
| 2026-05-03 23:05 | 30.72384 | -82.05358 | 38133 ft | 361 kts | 207° |
| 2026-05-03 23:06 | 30.67573 | -82.07000 | 38143 ft | 360 kts | 207° |
| 2026-05-03 23:06 | 30.63576 | -82.08362 | 38138 ft | 360 kts | 207° |
| 2026-05-03 23:07 | 30.58596 | -82.09539 | 38135 ft | 375 kts | 197° |
| 2026-05-03 23:07 | 30.53385 | -82.10018 | 38135 ft | 376 kts | 197° |
| 2026-05-03 23:08 | 30.48164 | -82.10494 | 38140 ft | 376 kts | 197° |
| 2026-05-03 23:08 | 30.42946 | -82.10982 | 38123 ft | 375 kts | 197° |
| 2026-05-03 23:08 | 30.40355 | -82.11223 | 37665 ft | 373 kts | 197° |
| 2026-05-03 23:09 | 30.37767 | -82.11464 | 36985 ft | 373 kts | 197° |
| 2026-05-03 23:09 | 30.35171 | -82.11710 | 36254 ft | 375 kts | 197° |
| 2026-05-03 23:09 | 30.32555 | -82.11959 | 35481 ft | 380 kts | 197° |
| 2026-05-03 23:09 | 30.29896 | -82.12211 | 35205 ft | 388 kts | 197° |
| 2026-05-03 23:10 | 30.27212 | -82.12465 | 35087 ft | 394 kts | 196° |
| 2026-05-03 23:10 | 30.21698 | -82.12972 | 35119 ft | 399 kts | 196° |
| 2026-05-03 23:11 | 30.16015 | -82.12731 | 35108 ft | 422 kts | 183° |
| 2026-05-03 23:11 | 30.10228 | -82.11543 | 35108 ft | 422 kts | 183° |
| 2026-05-03 23:12 | 30.04441 | -82.10365 | 35111 ft | 422 kts | 183° |
| 2026-05-03 23:12 | 29.98649 | -82.09205 | 35110 ft | 422 kts | 183° |
| 2026-05-03 23:13 | 29.92858 | -82.08044 | 35099 ft | 422 kts | 183° |
| 2026-05-03 23:13 | 29.87101 | -82.06884 | 35100 ft | 422 kts | 183° |
| 2026-05-03 23:14 | 29.81309 | -82.05716 | 35099 ft | 422 kts | 183° |
| 2026-05-03 23:14 | 29.75521 | -82.04555 | 35099 ft | 422 kts | 183° |
| 2026-05-03 23:15 | 29.69732 | -82.03401 | 35109 ft | 422 kts | 183° |
| 2026-05-03 23:15 | 29.63939 | -82.02242 | 35099 ft | 422 kts | 183° |
| 2026-05-03 23:16 | 29.58135 | -82.01080 | 35101 ft | 423 kts | 183° |
| 2026-05-03 23:16 | 29.52360 | -81.99928 | 35101 ft | 423 kts | 183° |
| 2026-05-03 23:17 | 29.46561 | -81.98766 | 35070 ft | 424 kts | 183° |
| 2026-05-03 23:17 | 29.43654 | -81.98186 | 34814 ft | 424 kts | 183° |
| 2026-05-03 23:17 | 29.40742 | -81.97606 | 34563 ft | 425 kts | 183° |
| 2026-05-03 23:17 | 29.37821 | -81.97024 | 34315 ft | 426 kts | 182° |
| 2026-05-03 23:18 | 29.34897 | -81.96445 | 34065 ft | 427 kts | 183° |
| 2026-05-03 23:18 | 29.31998 | -81.95873 | 33819 ft | 429 kts | 182° |
| 2026-05-03 23:18 | 29.29049 | -81.95290 | 33570 ft | 431 kts | 182° |
| 2026-05-03 23:18 | 29.26091 | -81.94705 | 33321 ft | 432 kts | 182° |
| 2026-05-03 23:19 | 29.23127 | -81.94118 | 33070 ft | 432 kts | 182° |
| 2026-05-03 23:19 | 29.20157 | -81.93531 | 32821 ft | 433 kts | 182° |
| 2026-05-03 23:19 | 29.17179 | -81.92946 | 32568 ft | 435 kts | 181° |
| 2026-05-03 23:19 | 29.14193 | -81.92360 | 32317 ft | 435 kts | 181° |
| 2026-05-03 23:20 | 29.11208 | -81.91774 | 32067 ft | 436 kts | 181° |
| 2026-05-03 23:20 | 29.08215 | -81.91186 | 31816 ft | 437 kts | 181° |
| 2026-05-03 23:20 | 29.05213 | -81.90594 | 31563 ft | 438 kts | 181° |
| 2026-05-03 23:20 | 29.02213 | -81.89998 | 31317 ft | 438 kts | 180° |
| 2026-05-03 23:21 | 28.99203 | -81.89400 | 31072 ft | 439 kts | 180° |
| 2026-05-03 23:21 | 28.96187 | -81.88803 | 30823 ft | 441 kts | 180° |
| 2026-05-03 23:21 | 28.93165 | -81.88204 | 30563 ft | 441 kts | 180° |
| 2026-05-03 23:21 | 28.90144 | -81.87606 | 30314 ft | 441 kts | 179° |
| 2026-05-03 23:22 | 28.84085 | -81.86421 | 29241 ft | 442 kts | 179° |
| 2026-05-03 23:22 | 28.81036 | -81.85835 | 28056 ft | 447 kts | 179° |
| 2026-05-03 23:22 | 28.77948 | -81.85239 | 26867 ft | 451 kts | 178° |
| 2026-05-03 23:23 | 28.74852 | -81.84631 | 25928 ft | 450 kts | 178° |
| 2026-05-03 23:23 | 28.71793 | -81.84015 | 25143 ft | 444 kts | 178° |
| 2026-05-03 23:23 | 28.68805 | -81.83408 | 24362 ft | 439 kts | 177° |
| 2026-05-03 23:23 | 28.65817 | -81.82808 | 23593 ft | 434 kts | 177° |
| 2026-05-03 23:24 | 28.62849 | -81.82217 | 22857 ft | 430 kts | 177° |
| 2026-05-03 23:24 | 28.59918 | -81.81638 | 22151 ft | 425 kts | 177° |
| 2026-05-03 23:24 | 28.57019 | -81.81067 | 21476 ft | 421 kts | 177° |
| 2026-05-03 23:24 | 28.54138 | -81.80469 | 21156 ft | 422 kts | 175° |
| 2026-05-03 23:25 | 28.51257 | -81.79743 | 21061 ft | 424 kts | 173° |
| 2026-05-03 23:25 | 28.48391 | -81.78920 | 21092 ft | 426 kts | 172° |
| 2026-05-03 23:25 | 28.45527 | -81.78050 | 21093 ft | 426 kts | 172° |
| 2026-05-03 23:25 | 28.42660 | -81.77170 | 21089 ft | 427 kts | 172° |
| 2026-05-03 23:26 | 28.39794 | -81.76303 | 21091 ft | 426 kts | 172° |
| 2026-05-03 23:26 | 28.36920 | -81.75457 | 21092 ft | 426 kts | 173° |
| 2026-05-03 23:26 | 28.34051 | -81.74634 | 21089 ft | 425 kts | 173° |
| 2026-05-03 23:26 | 28.31217 | -81.73838 | 21090 ft | 425 kts | 173° |
| 2026-05-03 23:27 | 28.28349 | -81.73037 | 21092 ft | 425 kts | 173° |
| 2026-05-03 23:27 | 28.25472 | -81.72233 | 21090 ft | 425 kts | 173° |
| 2026-05-03 23:27 | 28.22599 | -81.71420 | 21089 ft | 425 kts | 173° |
| 2026-05-03 23:27 | 28.19734 | -81.70600 | 21088 ft | 426 kts | 173° |
| 2026-05-03 23:28 | 28.16857 | -81.69776 | 21090 ft | 426 kts | 173° |
| 2026-05-03 23:28 | 28.13983 | -81.68960 | 21091 ft | 426 kts | 173° |
| 2026-05-03 23:28 | 28.11107 | -81.68143 | 21091 ft | 425 kts | 173° |
| 2026-05-03 23:28 | 28.08231 | -81.67406 | 21090 ft | 421 kts | 178° |
| 2026-05-03 23:29 | 28.05343 | -81.67172 | 21092 ft | 412 kts | 188° |
| 2026-05-03 23:29 | 28.02506 | -81.67473 | 20818 ft | 406 kts | 195° |
| 2026-05-03 23:29 | 27.99789 | -81.68174 | 19667 ft | 408 kts | 200° |
| 2026-05-03 23:29 | 27.97054 | -81.68969 | 19146 ft | 399 kts | 200° |
| 2026-05-03 23:30 | 27.94400 | -81.69750 | 18897 ft | 392 kts | 200° |
| 2026-05-03 23:30 | 27.91774 | -81.70523 | 18647 ft | 389 kts | 200° |
| 2026-05-03 23:30 | 27.89162 | -81.71288 | 18402 ft | 387 kts | 200° |
| 2026-05-03 23:30 | 27.86552 | -81.72046 | 18146 ft | 386 kts | 200° |
| 2026-05-03 23:31 | 27.83955 | -81.72794 | 17894 ft | 384 kts | 200° |
| 2026-05-03 23:31 | 27.81371 | -81.73535 | 17644 ft | 383 kts | 200° |
| 2026-05-03 23:31 | 27.78790 | -81.74275 | 17397 ft | 382 kts | 200° |
| 2026-05-03 23:31 | 27.76237 | -81.75009 | 17145 ft | 373 kts | 200° |
| 2026-05-03 23:32 | 27.73757 | -81.75717 | 16909 ft | 361 kts | 200° |
| 2026-05-03 23:32 | 27.71374 | -81.76353 | 17024 ft | 346 kts | 196° |
| 2026-05-03 23:32 | 27.68980 | -81.76575 | 16911 ft | 348 kts | 186° |
| 2026-05-03 23:32 | 27.66571 | -81.76518 | 16663 ft | 345 kts | 185° |
| 2026-05-03 23:33 | 27.64170 | -81.76454 | 16410 ft | 344 kts | 185° |
| 2026-05-03 23:33 | 27.61775 | -81.76391 | 16158 ft | 344 kts | 185° |
| 2026-05-03 23:33 | 27.59375 | -81.76073 | 15911 ft | 351 kts | 174° |
| 2026-05-03 23:33 | 27.57035 | -81.75210 | 16021 ft | 360 kts | 164° |
| 2026-05-03 23:34 | 27.54728 | -81.74091 | 16027 ft | 361 kts | 163° |
| 2026-05-03 23:34 | 27.52422 | -81.72973 | 16028 ft | 361 kts | 163° |
| 2026-05-03 23:34 | 27.50116 | -81.71857 | 16027 ft | 361 kts | 163° |
| 2026-05-03 23:34 | 27.47808 | -81.70744 | 16027 ft | 361 kts | 163° |
| 2026-05-03 23:35 | 27.45501 | -81.69632 | 16028 ft | 361 kts | 163° |
| 2026-05-03 23:35 | 27.43218 | -81.68532 | 16034 ft | 361 kts | 163° |
| 2026-05-03 23:35 | 27.40912 | -81.67421 | 16036 ft | 361 kts | 163° |
| 2026-05-03 23:35 | 27.38604 | -81.66309 | 16037 ft | 361 kts | 163° |
| 2026-05-03 23:36 | 27.36294 | -81.65195 | 16039 ft | 361 kts | 163° |
| 2026-05-03 23:36 | 27.33983 | -81.64080 | 15796 ft | 362 kts | 163° |
| 2026-05-03 23:36 | 27.31658 | -81.62961 | 15256 ft | 362 kts | 163° |
| 2026-05-03 23:36 | 27.29349 | -81.61849 | 14753 ft | 360 kts | 163° |
| 2026-05-03 23:37 | 27.27048 | -81.60742 | 14227 ft | 358 kts | 163° |
| 2026-05-03 23:37 | 27.24766 | -81.59643 | 13710 ft | 357 kts | 162° |
| 2026-05-03 23:37 | 27.22499 | -81.58552 | 13274 ft | 353 kts | 162° |
| 2026-05-03 23:37 | 27.20241 | -81.57464 | 12798 ft | 350 kts | 162° |
| 2026-05-03 23:38 | 27.18005 | -81.56388 | 12279 ft | 349 kts | 162° |
| 2026-05-03 23:38 | 27.15803 | -81.55331 | 12083 ft | 337 kts | 162° |
| 2026-05-03 23:38 | 27.13712 | -81.54326 | 11958 ft | 325 kts | 162° |
| 2026-05-03 23:38 | 27.11669 | -81.53344 | 11828 ft | 315 kts | 162° |
| 2026-05-03 23:39 | 27.09675 | -81.52387 | 11568 ft | 309 kts | 162° |
| 2026-05-03 23:39 | 27.07713 | -81.51444 | 11417 ft | 304 kts | 162° |
| 2026-05-03 23:39 | 27.05767 | -81.50513 | 11347 ft | 304 kts | 161° |
| 2026-05-03 23:39 | 27.03821 | -81.49585 | 11231 ft | 303 kts | 161° |
| 2026-05-03 23:40 | 27.01882 | -81.48658 | 11098 ft | 302 kts | 161° |
| 2026-05-03 23:40 | 26.99954 | -81.47730 | 11014 ft | 301 kts | 161° |
| 2026-05-03 23:40 | 26.98035 | -81.46781 | 11027 ft | 302 kts | 160° |
| 2026-05-03 23:40 | 26.96117 | -81.45818 | 11022 ft | 302 kts | 160° |
| 2026-05-03 23:41 | 26.94205 | -81.44852 | 10923 ft | 302 kts | 160° |
| 2026-05-03 23:41 | 26.92282 | -81.43880 | 10476 ft | 303 kts | 160° |
| 2026-05-03 23:41 | 26.90389 | -81.42925 | 10092 ft | 302 kts | 159° |
| 2026-05-03 23:41 | 26.88481 | -81.41966 | 9712 ft | 299 kts | 159° |
| 2026-05-03 23:42 | 26.86593 | -81.41021 | 9409 ft | 295 kts | 159° |
| 2026-05-03 23:42 | 26.84727 | -81.40085 | 9179 ft | 292 kts | 159° |
| 2026-05-03 23:42 | 26.82814 | -81.39379 | 8965 ft | 288 kts | 171° |
| 2026-05-03 23:42 | 26.80836 | -81.39208 | 8760 ft | 284 kts | 184° |
| 2026-05-03 23:43 | 26.78861 | -81.39288 | 8541 ft | 284 kts | 184° |
| 2026-05-03 23:43 | 26.76883 | -81.39355 | 8341 ft | 283 kts | 184° |
| 2026-05-03 23:43 | 26.74916 | -81.39418 | 8131 ft | 282 kts | 183° |
| 2026-05-03 23:43 | 26.72956 | -81.39480 | 7924 ft | 281 kts | 183° |
| 2026-05-03 23:44 | 26.71025 | -81.39543 | 7720 ft | 281 kts | 183° |
| 2026-05-03 23:44 | 26.69077 | -81.39646 | 7513 ft | 279 kts | 189° |
| 2026-05-03 23:44 | 26.67229 | -81.40245 | 7313 ft | 276 kts | 206° |
| 2026-05-03 23:44 | 26.65635 | -81.41414 | 7113 ft | 274 kts | 222° |
| 2026-05-03 23:45 | 26.64397 | -81.43030 | 6919 ft | 274 kts | 234° |
| 2026-05-03 23:45 | 26.63280 | -81.44754 | 6710 ft | 274 kts | 234° |
| 2026-05-03 23:45 | 26.62160 | -81.46474 | 6515 ft | 273 kts | 234° |
| 2026-05-03 23:45 | 26.61045 | -81.48191 | 6320 ft | 273 kts | 234° |
| 2026-05-03 23:46 | 26.59931 | -81.49902 | 6122 ft | 272 kts | 234° |
| 2026-05-03 23:46 | 26.58839 | -81.51585 | 5926 ft | 271 kts | 234° |
| 2026-05-03 23:46 | 26.57732 | -81.53294 | 5719 ft | 271 kts | 234° |
| 2026-05-03 23:46 | 26.56627 | -81.54998 | 5528 ft | 271 kts | 234° |
| 2026-05-03 23:47 | 26.55519 | -81.56706 | 5331 ft | 271 kts | 234° |
| 2026-05-03 23:47 | 26.54410 | -81.58409 | 5131 ft | 271 kts | 234° |
| 2026-05-03 23:47 | 26.53305 | -81.60105 | 4934 ft | 270 kts | 234° |
| 2026-05-03 23:47 | 26.52194 | -81.61803 | 4737 ft | 271 kts | 234° |
| 2026-05-03 23:48 | 26.51089 | -81.63495 | 4534 ft | 271 kts | 235° |
| 2026-05-03 23:48 | 26.50003 | -81.65209 | 4288 ft | 269 kts | 236° |
| 2026-05-03 23:48 | 26.48915 | -81.66912 | 4095 ft | 270 kts | 235° |
| 2026-05-03 23:48 | 26.47802 | -81.68598 | 3917 ft | 270 kts | 234° |
| 2026-05-03 23:49 | 26.46725 | -81.70297 | 3509 ft | 267 kts | 240° |
| 2026-05-03 23:49 | 26.45825 | -81.72105 | 3028 ft | 267 kts | 243° |
| 2026-05-03 23:49 | 26.44947 | -81.73919 | 2666 ft | 262 kts | 243° |
| 2026-05-03 23:49 | 26.44113 | -81.75642 | 2528 ft | 250 kts | 243° |
| 2026-05-03 23:50 | 26.43459 | -81.77372 | 2425 ft | 235 kts | 259° |
| 2026-05-03 23:50 | 26.43253 | -81.78552 | 2406 ft | 223 kts | 263° |
| 2026-05-03 23:50 | 26.42933 | -81.80740 | 2407 ft | 207 kts | 263° |
| 2026-05-03 23:50 | 26.42710 | -81.82294 | 2405 ft | 200 kts | 263° |
| 2026-05-03 23:51 | 26.42496 | -81.83816 | 2407 ft | 197 kts | 265° |
| 2026-05-03 23:51 | 26.42442 | -81.85331 | 2409 ft | 195 kts | 272° |
| 2026-05-03 23:51 | 26.42499 | -81.86843 | 2394 ft | 194 kts | 284° |
| 2026-05-03 23:51 | 26.42928 | -81.88197 | 2405 ft | 179 kts | 307° |
| 2026-05-03 23:52 | 26.43912 | -81.88876 | 2397 ft | 166 kts | 353° |
| 2026-05-03 23:52 | 26.44998 | -81.88590 | 2388 ft | 164 kts | 36° |
| 2026-05-03 23:52 | 26.45707 | -81.87601 | 2305 ft | 165 kts | 55° |
| 2026-05-03 23:52 | 26.46386 | -81.86576 | 2103 ft | 163 kts | 53° |
| 2026-05-03 23:53 | 26.47060 | -81.85561 | 1889 ft | 163 kts | 53° |
| 2026-05-03 23:53 | 26.47712 | -81.84557 | 1674 ft | 161 kts | 54° |
| 2026-05-03 23:53 | 26.48370 | -81.83553 | 1459 ft | 159 kts | 53° |
| 2026-05-03 23:53 | 26.49010 | -81.82582 | 1239 ft | 152 kts | 54° |
| 2026-05-03 23:54 | 26.49620 | -81.81642 | 1044 ft | 145 kts | 53° |
| 2026-05-03 23:54 | 26.50187 | -81.80771 | 851 ft | 135 kts | 54° |
| 2026-05-03 23:54 | 26.50737 | -81.79938 | 671 ft | 131 kts | 54° |
| 2026-05-03 23:54 | 26.51272 | -81.79124 | 472 ft | 130 kts | 54° |
| 2026-05-03 23:55 | 26.51800 | -81.78303 | 348 ft | 131 kts | 54° |
| 2026-05-03 23:55 | 26.52339 | -81.77466 | 201 ft | 134 kts | 53° |
| 2026-05-03 23:55 | 26.52899 | -81.76622 | 52 ft | 135 kts | 54° |
| 2026-05-03 23:55 | 26.53365 | -81.75902 | 42 ft | 91 kts | 54° |
| 2026-05-03 23:56 | 26.53638 | -81.75482 | 42 ft | 42 kts | 54° |
| 2026-05-03 23:56 | 26.53741 | -81.75325 | 42 ft | 20 kts | 54° |
| 2026-05-03 23:56 | 26.53783 | -81.75185 | 43 ft | 16 kts | 98° |
| 2026-05-03 23:56 | 26.53709 | -81.75171 | 43 ft | 13 kts | 224° |
| 2026-05-03 23:57 | 26.53651 | -81.75253 | 43 ft | 14 kts | 234° |
| 2026-05-03 23:57 | 26.53590 | -81.75346 | 41 ft | 16 kts | 233° |
| 2026-05-03 23:57 | 26.53522 | -81.75450 | 44 ft | 17 kts | 234° |
| 2026-05-03 23:57 | 26.53451 | -81.75482 | 43 ft | 12 kts | 148° |
| 2026-05-03 23:58 | 26.53375 | -81.75423 | 44 ft | 14 kts | 147° |
| 2026-05-03 23:58 | 26.53294 | -81.75359 | 44 ft | 15 kts | 144° |
| 2026-05-03 23:58 | 26.53195 | -81.75327 | 43 ft | 16 kts | 187° |
| 2026-05-03 23:58 | 26.53089 | -81.75345 | 43 ft | 14 kts | 188° |
| 2026-05-03 23:59 | 26.53005 | -81.75361 | 43 ft | 11 kts | 189° |
| 2026-05-03 23:59 | 26.52939 | -81.75373 | 44 ft | 9 kts | 189° |
| 2026-05-03 23:59 | 26.52903 | -81.75390 | 43 ft | 8 kts | 233° |
| 2026-05-03 23:59 | 26.52907 | -81.75438 | 42 ft | 5 kts | 278° |
| 2026-05-04 00:00 | 26.52909 | -81.75452 | 42 ft | 1 kts | 278° |
| 2026-05-04 00:00 | 26.52909 | -81.75456 | 42 ft | 0 kts | 278° |